Time;durP1;ratioP1;P1;durP2;ratioP2;P2;SDS_P1;SDS_P2;PMS_P1;PMS_P2;Temp;Humidity;BMP_temperature;BMP_pressure;BME280_temperature;BME280_humidity;BME280_pressure;Samples;Min_cycle;Max_cycle;Signal;HPM_P1;HPM_P2
2022/06/18 00:01:34;;;;;;;5.55;3.53;;;;;;;21.31;64.46;96857.66;5020032;28;20203;-83
2022/06/18 00:04:03;;;;;;;4.65;3.58;;;;;;;21.25;65.04;96853.31;5012665;28;20213;-82
2022/06/18 00:06:31;;;;;;;4.30;3.90;;;;;;;21.22;65.30;96858.53;5016574;28;20203;-82
2022/06/18 00:08:59;;;;;;;4.18;3.45;;;;;;;21.17;65.76;96845.69;5010659;28;20275;-82
2022/06/18 00:14:12;;;;;;;4.32;3.80;;;;;;;21.08;66.27;96842.69;5018432;28;20213;-83
2022/06/18 00:16:39;;;;;;;6.38;3.83;;;;;;;21.06;66.27;96844.91;5010049;28;20238;-83
2022/06/18 00:19:07;;;;;;;4.78;3.75;;;;;;;21.10;65.84;96845.94;5011044;28;20207;-82
2022/06/18 00:21:34;;;;;;;4.32;3.63;;;;;;;21.00;66.35;96840.56;5009936;28;20209;-82
2022/06/18 00:24:01;;;;;;;6.45;3.67;;;;;;;21.00;66.08;96840.56;5010333;28;20205;-82
2022/06/18 00:26:28;;;;;;;3.72;3.42;;;;;;;20.99;65.73;96844.41;5005210;28;20199;-82
2022/06/18 00:28:55;;;;;;;5.90;3.30;;;;;;;20.92;65.97;96824.69;5027042;28;20249;-83
2022/06/18 00:31:24;;;;;;;3.80;3.50;;;;;;;20.89;65.81;96838.97;5010615;28;20213;-82
2022/06/18 00:33:51;;;;;;;4.32;3.40;;;;;;;20.92;65.32;96832.91;5010185;28;20199;-82
2022/06/18 00:36:19;;;;;;;3.97;3.60;;;;;;;20.85;65.68;96826.91;5009907;28;20237;-82
2022/06/18 00:38:48;;;;;;;5.63;3.30;;;;;;;20.88;65.65;96825.53;5009607;28;20297;-83
2022/06/18 00:41:19;;;;;;;4.22;3.42;;;;;;;20.82;65.36;96822.00;5018356;28;20209;-82
2022/06/18 00:43:50;;;;;;;4.55;3.38;;;;;;;20.86;65.63;96828.53;5008126;28;20210;-82
2022/06/18 00:46:26;;;;;;;4.90;3.65;;;;;;;20.88;65.22;96820.03;5010732;28;20228;-82
2022/06/18 00:49:02;;;;;;;6.80;3.78;;;;;;;20.85;65.08;96818.66;5011851;28;20300;-82
2022/06/18 00:51:35;;;;;;;5.68;3.45;;;;;;;20.83;65.31;96812.66;5003291;28;20199;-82
2022/06/18 00:54:08;;;;;;;3.97;2.97;;;;;;;20.85;65.35;96820.59;5001080;28;20207;-82
2022/06/18 00:56:41;;;;;;;3.63;3.33;;;;;;;20.83;65.02;96815.41;5027260;28;20223;-82
2022/06/18 00:59:14;;;;;;;4.15;3.30;;;;;;;20.89;64.66;96814.25;5024926;28;20289;-82
2022/06/18 01:01:45;;;;;;;4.55;3.50;;;;;;;20.91;64.89;96812.06;5007657;28;20261;-83
2022/06/18 01:04:27;;;;;;;5.18;3.28;;;;;;;20.89;64.57;96805.22;5012124;28;20217;-82
2022/06/18 01:07:01;;;;;;;4.93;3.40;;;;;;;20.83;64.05;96796.19;5019182;28;20207;-82
2022/06/18 01:09:29;;;;;;;5.00;3.42;;;;;;;20.87;63.86;96799.19;5007349;28;20270;-82
2022/06/18 01:11:57;;;;;;;5.45;3.28;;;;;;;20.89;63.85;96800.53;5021403;28;20258;-83
2022/06/18 01:14:27;;;;;;;6.47;3.38;;;;;;;20.86;64.08;96797.53;5020279;28;20249;-83
2022/06/18 01:16:57;;;;;;;4.32;3.08;;;;;;;20.84;63.95;96797.81;5011246;28;20297;-83
2022/06/18 01:19:32;;;;;;;3.78;3.10;;;;;;;20.81;63.35;96787.41;5009155;28;20212;-82
2022/06/18 01:22:11;;;;;;;4.10;3.30;;;;;;;20.83;62.75;96787.97;5010291;28;20211;-82
2022/06/18 01:24:44;;;;;;;4.40;3.28;;;;;;;20.88;63.24;96793.41;5007962;28;20226;-82
2022/06/18 01:27:13;;;;;;;3.83;3.40;;;;;;;20.84;63.51;96781.34;5007543;28;20207;-82
2022/06/18 01:29:40;;;;;;;5.55;3.33;;;;;;;20.81;63.77;96781.94;5005573;28;20218;-82
2022/06/18 01:32:12;;;;;;;3.85;3.22;;;;;;;20.79;63.48;96784.13;5005117;28;20207;-82
2022/06/18 01:34:39;;;;;;;6.30;3.60;;;;;;;20.78;63.52;96775.06;5007874;28;20212;-82
2022/06/18 01:37:08;;;;;;;4.43;3.38;;;;;;;20.79;63.08;96762.19;5012011;28;20251;-83
2022/06/18 01:39:41;;;;;;;4.18;3.70;;;;;;;20.82;63.22;96767.09;5008443;28;20277;-82
2022/06/18 01:42:15;;;;;;;5.20;3.10;;;;;;;20.83;62.67;96763.25;5008074;28;20203;-82
2022/06/18 01:44:48;;;;;;;4.43;3.25;;;;;;;20.89;62.22;96759.38;5005946;28;20214;-82
2022/06/18 01:47:23;;;;;;;8.02;3.35;;;;;;;20.91;61.34;96765.41;5009886;28;20298;-82
2022/06/18 01:49:57;;;;;;;6.80;3.00;;;;;;;20.92;61.13;96764.28;5010671;28;20230;-82
2022/06/18 01:52:30;;;;;;;4.68;3.08;;;;;;;21.02;60.02;96772.44;5015936;28;20202;-83
2022/06/18 01:55:10;;;;;;;3.90;3.20;;;;;;;21.00;61.81;96760.94;5008956;28;20223;-82
2022/06/18 01:57:46;;;;;;;3.55;2.95;;;;;;;20.93;63.14;96768.66;5000411;28;20291;-83
2022/06/18 02:00:18;;;;;;;3.28;2.90;;;;;;;20.92;63.44;96768.97;5014573;28;20206;-82
2022/06/18 02:02:53;;;;;;;4.63;3.92;;;;;;;20.91;63.88;96759.09;5005945;28;20207;-83
2022/06/18 02:05:22;;;;;;;6.82;3.20;;;;;;;20.99;61.86;96764.78;4999025;28;20207;-82
2022/06/18 02:07:50;;;;;;;3.95;2.90;;;;;;;20.98;61.62;96763.13;4999390;28;20223;-82
2022/06/18 02:10:20;;;;;;;6.10;2.92;;;;;;;20.96;61.95;96768.09;5007629;28;20235;-82
2022/06/18 02:12:51;;;;;;;8.75;3.50;;;;;;;20.95;63.09;96768.38;5016533;28;20214;-82
2022/06/18 02:15:23;;;;;;;4.03;3.28;;;;;;;20.90;63.51;96769.25;5008618;28;20230;-82
2022/06/18 02:17:50;;;;;;;12.15;3.22;;;;;;;20.84;64.55;96775.84;5006678;28;20203;-82
2022/06/18 02:20:21;;;;;;;7.38;2.67;;;;;;;20.86;64.88;96762.66;4998634;28;20210;-82
2022/06/18 02:22:50;;;;;;;4.43;2.50;;;;;;;20.75;64.74;96750.16;5010046;28;20229;-82
2022/06/18 02:25:21;;;;;;;6.80;3.28;;;;;;;20.65;63.21;96759.25;5008919;28;20195;-82
2022/06/18 02:27:53;;;;;;;4.63;2.85;;;;;;;20.59;65.10;96760.38;5018394;28;20198;-82
2022/06/18 02:30:23;;;;;;;5.35;3.05;;;;;;;20.59;65.39;96773.28;5007264;28;20238;-82
2022/06/18 02:32:56;;;;;;;4.20;2.97;;;;;;;20.46;68.99;96771.16;5025177;28;20265;-82
2022/06/18 02:35:23;;;;;;;3.60;2.67;;;;;;;20.42;68.46;96764.59;5002907;28;20230;-82
2022/06/18 02:37:50;;;;;;;5.32;2.88;;;;;;;20.41;69.90;96773.94;4999584;28;20191;-82
2022/06/18 02:40:21;;;;;;;5.93;2.75;;;;;;;20.37;70.70;96770.94;5007406;28;20215;-82
2022/06/18 02:42:50;;;;;;;5.55;2.90;;;;;;;20.32;71.30;96777.25;5005032;28;20218;-82
2022/06/18 02:45:20;;;;;;;5.20;2.72;;;;;;;20.20;72.61;96765.78;5017993;28;20206;-82
2022/06/18 02:47:51;;;;;;;4.43;2.83;;;;;;;20.20;73.82;96776.75;5008445;28;20213;-82
2022/06/18 02:50:22;;;;;;;4.05;2.90;;;;;;;20.05;74.34;96773.25;5010885;28;20237;-83
2022/06/18 02:52:54;;;;;;;4.72;3.22;;;;;;;19.86;75.03;96764.81;5009045;28;20277;-83
2022/06/18 02:55:28;;;;;;;3.80;2.95;;;;;;;19.82;73.89;96780.97;5013912;28;20230;-83
2022/06/18 02:58:03;;;;;;;7.47;3.20;;;;;;;19.75;75.48;96768.69;5014534;28;20358;-83
2022/06/18 03:00:31;;;;;;;7.70;3.03;;;;;;;19.72;77.21;96777.47;5004253;28;20236;-83
2022/06/18 03:02:59;;;;;;;6.15;3.50;;;;;;;19.65;76.05;96778.56;4997598;28;20211;-84
2022/06/18 03:05:28;;;;;;;6.43;3.20;;;;;;;19.59;77.37;96770.63;4987868;28;20207;-83
2022/06/18 03:07:56;;;;;;;4.55;2.60;;;;;;;19.55;76.31;96764.09;4982132;28;20208;-83
2022/06/18 03:13:09;;;;;;;4.53;2.60;;;;;;;19.54;74.54;96766.00;5010453;28;20223;-83
2022/06/18 03:15:40;;;;;;;5.80;2.65;;;;;;;19.45;74.75;96770.38;5006850;28;20277;-83
2022/06/18 03:18:08;;;;;;;4.70;2.83;;;;;;;19.43;74.32;96775.28;5008582;28;20210;-83
2022/06/18 03:20:50;;;;;;;3.70;2.70;;;;;;;19.32;72.53;96761.88;5008160;28;20195;-83
2022/06/18 03:23:18;;;;;;;4.78;3.10;;;;;;;19.33;72.58;96764.34;5005817;28;20202;-83
2022/06/18 03:25:47;;;;;;;5.60;2.80;;;;;;;19.40;72.46;96769.53;5023260;28;20260;-83
2022/06/18 03:28:16;;;;;;;5.53;2.70;;;;;;;19.40;71.46;96766.78;5011429;28;20214;-83
2022/06/18 03:30:44;;;;;;;5.10;3.30;;;;;;;19.35;72.19;96762.16;5006404;28;20191;-82
2022/06/18 03:33:12;;;;;;;4.27;2.90;;;;;;;19.31;72.57;96755.59;5004184;28;20203;-83
2022/06/18 03:35:44;;;;;;;7.67;2.80;;;;;;;19.33;72.57;96756.13;4992834;28;20273;-83
2022/06/18 03:38:13;;;;;;;4.80;2.77;;;;;;;19.34;75.06;96762.44;5009343;28;20274;-83
2022/06/18 03:40:40;;;;;;;5.13;3.03;;;;;;;19.28;72.23;96756.16;5006134;28;20297;-83
2022/06/18 03:43:08;;;;;;;7.03;2.80;;;;;;;19.22;73.92;96757.25;5002175;28;20203;-83
2022/06/18 03:45:39;;;;;;;7.27;3.20;;;;;;;19.19;72.42;96755.06;5006813;28;20257;-83
2022/06/18 03:48:19;;;;;;;7.50;3.40;;;;;;;19.09;73.93;96755.06;5007779;28;20214;-83
2022/06/18 03:50:47;;;;;;;4.73;3.20;;;;;;;19.04;74.47;96755.91;5022118;28;20199;-83
2022/06/18 03:53:14;;;;;;;7.03;3.07;;;;;;;19.05;74.91;96757.56;5007934;28;20273;-83
2022/06/18 03:55:41;;;;;;;8.23;2.80;;;;;;;19.08;74.85;96764.38;5009941;28;20266;-83
2022/06/18 03:58:09;;;;;;;7.30;3.00;;;;;;;19.08;73.84;96770.66;4994240;28;20230;-83
2022/06/18 04:00:39;;;;;;;5.30;3.00;;;;;;;19.07;72.22;96758.06;5013113;28;20213;-83
2022/06/18 04:03:07;;;;;;;8.57;2.97;;;;;;;19.25;69.63;96754.78;5020199;28;20195;-83
2022/06/18 04:05:37;;;;;;;7.33;2.80;;;;;;;19.37;69.32;96768.19;5018980;28;20225;-83
2022/06/18 04:08:05;;;;;;;6.00;2.97;;;;;;;19.41;69.40;96772.00;4995598;28;20206;-83
2022/06/18 04:10:56;;;;;;;5.10;2.90;;;;;;;19.47;70.42;96784.66;5008695;28;20237;-83
2022/06/18 04:13:23;;;;;;;6.07;3.55;;;;;;;19.49;70.97;96782.44;5006065;28;20211;-83
2022/06/18 04:15:54;;;;;;;9.77;3.15;;;;;;;19.43;71.42;96790.91;5007868;28;20243;-83
2022/06/18 04:18:26;;;;;;;6.72;3.30;;;;;;;19.35;71.55;96775.84;5011948;28;20226;-83
2022/06/18 04:20:54;;;;;;;4.55;2.80;;;;;;;19.38;72.71;96771.75;5000199;28;20222;-82
2022/06/18 04:23:23;;;;;;;5.50;2.95;;;;;;;19.39;73.05;96779.69;5025013;28;20214;-82
2022/06/18 04:25:50;;;;;;;8.55;2.58;;;;;;;19.36;74.90;96773.94;5016184;28;20372;-82
2022/06/18 04:28:19;;;;;;;5.30;3.20;;;;;;;19.30;74.02;96769.56;5011063;28;20269;-83
2022/06/18 04:30:56;;;;;;;9.35;3.20;;;;;;;19.21;74.74;96766.56;5022007;28;20211;-82
2022/06/18 04:33:33;;;;;;;6.85;3.47;;;;;;;19.13;74.75;96778.06;5010540;28;20210;-82
2022/06/18 04:36:37;;;;;;;8.87;3.27;;;;;;;19.09;75.38;96782.44;5016333;28;20313;-82
2022/06/18 04:39:14;;;;;;;6.43;3.07;;;;;;;19.02;75.38;96777.25;4999038;28;20222;-82
2022/06/18 04:41:54;;;;;;;6.97;2.90;;;;;;;18.99;76.31;96779.69;5005519;28;20214;-83
2022/06/18 04:44:24;;;;;;;11.13;2.90;;;;;;;19.00;80.19;96775.88;5012388;28;20209;-82
2022/06/18 04:46:56;;;;;;;5.10;2.53;;;;;;;18.89;80.46;96781.31;5016916;28;20230;-82
2022/06/18 04:49:23;;;;;;;11.83;3.10;;;;;;;18.82;81.47;96758.88;5016428;28;20231;-82
2022/06/18 04:51:50;;;;;;;9.43;2.60;;;;;;;18.90;82.69;96772.03;5011978;28;20203;-83
2022/06/18 04:54:28;;;;;;;9.00;3.10;;;;;;;18.95;80.33;96770.41;5014536;28;20211;-83
2022/06/18 04:56:55;;;;;;;9.10;3.70;;;;;;;18.90;77.30;96763.81;5008650;28;20223;-83
2022/06/18 04:59:23;;;;;;;9.43;3.20;;;;;;;18.92;77.88;96760.81;5012342;28;20207;-83
2022/06/18 05:02:01;;;;;;;7.93;2.80;;;;;;;19.07;76.42;96776.41;5014427;28;20210;-82
2022/06/18 05:05:01;;;;;;;11.87;3.17;;;;;;;19.04;76.75;96775.06;4981305;28;20218;-83
2022/06/18 05:07:56;;;;;;;4.93;2.80;;;;;;;18.98;79.49;96786.25;5007135;28;20217;-82
2022/06/18 05:10:40;;;;;;;9.10;2.60;;;;;;;18.94;79.06;96785.19;5006883;28;20209;-83
2022/06/18 05:13:15;;;;;;;8.48;2.75;;;;;;;18.83;82.27;96796.09;5019080;28;20212;-83
2022/06/18 05:15:47;;;;;;;7.10;3.20;;;;;;;18.79;82.06;96795.03;5004103;28;20233;-82
2022/06/18 05:18:18;;;;;;;7.50;3.10;;;;;;;18.80;83.30;96801.28;5010696;28;20218;-82
2022/06/18 05:20:54;;;;;;;8.48;2.90;;;;;;;18.84;83.53;96805.97;5019962;28;20198;-83
2022/06/18 05:23:25;;;;;;;8.52;3.13;;;;;;;18.78;85.96;96807.06;5012355;28;20196;-82
2022/06/18 05:25:56;;;;;;;8.67;3.60;;;;;;;18.76;84.66;96811.16;5015708;28;20225;-82
2022/06/18 05:28:23;;;;;;;10.77;3.13;;;;;;;18.65;87.15;96804.00;5005886;28;20204;-82
2022/06/18 05:30:50;;;;;;;12.60;3.10;;;;;;;18.63;87.80;96796.06;5011054;28;20199;-82
2022/06/18 05:33:19;;;;;;;9.80;3.87;;;;;;;18.65;87.35;96796.63;5022787;28;20215;-82
2022/06/18 05:35:49;;;;;;;10.67;3.63;;;;;;;18.68;88.02;96792.53;5022931;28;20204;-82
2022/06/18 05:38:19;;;;;;;8.47;2.90;;;;;;;18.72;89.33;96797.16;5009331;28;20202;-83
2022/06/18 05:40:46;;;;;;;7.93;3.00;;;;;;;18.79;88.47;96792.28;5006792;28;20214;-83
2022/06/18 05:43:15;;;;;;;12.00;3.70;;;;;;;18.71;88.41;96792.81;5000554;28;20208;-83
2022/06/18 05:45:43;;;;;;;8.98;2.83;;;;;;;18.74;87.98;96795.00;5010868;28;20303;-84
2022/06/18 05:48:11;;;;;;;12.97;3.27;;;;;;;18.76;89.13;96795.56;5010226;28;20207;-84
2022/06/18 05:50:41;;;;;;;9.97;3.13;;;;;;;18.78;90.96;96784.34;5004674;28;20234;-84
2022/06/18 05:53:09;;;;;;;12.03;3.27;;;;;;;18.79;90.30;96783.25;5010178;28;20207;-84
2022/06/18 05:55:54;;;;;;;8.90;3.10;;;;;;;18.80;87.12;96780.22;5019110;28;20211;-84
2022/06/18 05:58:41;;;;;;;9.43;3.50;;;;;;;18.83;86.49;96779.69;5007186;28;20207;-84
2022/06/18 06:01:14;;;;;;;8.10;3.07;;;;;;;18.79;87.18;96781.34;5010397;28;20207;-84
2022/06/18 06:03:41;;;;;;;6.53;2.80;;;;;;;18.73;87.16;96773.38;5010095;28;20207;-83
2022/06/18 06:06:10;;;;;;;8.60;3.03;;;;;;;18.77;88.70;96763.53;5003572;28;20279;-84
2022/06/18 06:08:40;;;;;;;10.93;3.20;;;;;;;18.67;90.19;96767.09;5009810;28;20198;-84
2022/06/18 06:13:54;;;;;;;9.33;2.90;;;;;;;18.79;91.12;96764.94;5006882;28;20298;-83
2022/06/18 06:16:21;;;;;;;9.70;3.10;;;;;;;18.85;90.63;96761.09;5021658;28;20238;-83
2022/06/18 06:18:48;;;;;;;11.17;3.33;;;;;;;18.88;90.36;96757.00;5008509;28;20207;-83
2022/06/18 06:21:17;;;;;;;9.70;3.30;;;;;;;18.83;87.67;96741.38;5004848;28;20203;-83
2022/06/18 06:23:44;;;;;;;10.43;2.90;;;;;;;18.94;88.46;96747.69;5011085;28;20216;-83
2022/06/18 06:26:18;;;;;;;10.10;3.50;;;;;;;18.95;86.66;96743.03;5011779;28;20229;-83
2022/06/18 06:28:45;;;;;;;9.30;3.57;;;;;;;18.94;86.10;96738.66;5025768;28;20199;-83
2022/06/18 06:31:13;;;;;;;10.00;3.60;;;;;;;18.95;88.88;96726.63;5023507;28;20206;-84
2022/06/18 06:33:40;;;;;;;8.47;3.00;;;;;;;19.02;89.41;96724.41;5024913;28;20218;-84
2022/06/18 06:36:09;;;;;;;7.10;3.17;;;;;;;19.08;90.36;96737.81;4993589;28;20203;-83
2022/06/18 06:38:38;;;;;;;9.13;2.93;;;;;;;18.97;92.21;96724.44;5018279;28;20298;-83
2022/06/18 06:41:11;;;;;;;9.60;2.97;;;;;;;18.98;92.99;96726.06;5020207;28;20218;-83
2022/06/18 06:43:38;;;;;;;12.37;3.00;;;;;;;19.05;93.26;96721.16;5019174;28;20241;-84
2022/06/18 06:46:05;;;;;;;11.70;3.73;;;;;;;19.04;92.38;96719.50;5007505;28;20199;-84
2022/06/18 06:48:32;;;;;;;9.80;3.00;;;;;;;19.11;87.76;96722.78;5009844;28;20206;-84
2022/06/18 06:51:00;;;;;;;13.77;3.20;;;;;;;19.22;89.30;96721.69;5010244;28;20199;-84
2022/06/18 06:53:27;;;;;;;14.68;3.08;;;;;;;19.24;91.26;96719.47;5005134;28;20215;-84
2022/06/18 06:58:40;;;;;;;12.85;3.10;;;;;;;19.22;91.62;96708.00;5003824;28;20222;-83
2022/06/18 07:01:07;;;;;;;14.30;3.07;;;;;;;19.21;92.45;96695.38;5015086;28;20203;-83
2022/06/18 07:03:34;;;;;;;12.53;3.00;;;;;;;19.13;91.26;96685.81;5006136;28;20207;-84
2022/06/18 07:06:03;;;;;;;12.80;3.47;;;;;;;19.13;91.91;96690.47;5010625;28;20199;-83
2022/06/18 07:08:30;;;;;;;11.70;2.88;;;;;;;19.13;90.01;96688.56;5002423;28;20214;-83
2022/06/18 07:11:00;;;;;;;6.10;2.37;;;;;;;19.16;89.06;96687.16;5015561;28;20202;-84
2022/06/18 07:13:27;;;;;;;12.38;3.08;;;;;;;19.35;89.01;96687.41;5019155;28;20302;-84
2022/06/18 07:15:55;;;;;;;11.80;3.25;;;;;;;19.67;89.77;96690.63;5002568;28;20225;-83
2022/06/18 07:18:25;;;;;;;11.75;2.75;;;;;;;20.10;90.12;96693.72;5002382;28;20235;-83
2022/06/18 07:20:52;;;;;;;13.85;3.40;;;;;;;20.43;88.94;96681.22;5003441;28;20586;-83
2022/06/18 07:23:20;;;;;;;11.80;3.33;;;;;;;20.73;83.96;96691.97;5004606;28;20294;-82
2022/06/18 07:25:47;;;;;;;13.02;3.67;;;;;;;21.10;81.14;96692.19;5001324;28;20218;-82
2022/06/18 07:28:16;;;;;;;15.68;3.22;;;;;;;21.45;79.03;96693.78;5003879;28;20203;-82
2022/06/18 07:30:46;;;;;;;11.77;2.65;;;;;;;21.85;75.50;96688.94;5004308;28;20218;-82
2022/06/18 07:33:15;;;;;;;9.38;3.00;;;;;;;22.18;72.19;96690.75;5017901;28;20211;-81
2022/06/18 07:35:42;;;;;;;17.42;3.45;;;;;;;22.47;66.35;96687.84;5015942;28;20200;-82
2022/06/18 07:38:09;;;;;;;12.85;3.05;;;;;;;22.76;67.38;96684.13;4999853;28;20330;-82
2022/06/18 07:40:41;;;;;;;15.00;3.50;;;;;;;23.07;64.49;96679.75;4998545;28;20195;-82
2022/06/18 07:43:09;;;;;;;16.15;2.95;;;;;;;23.26;63.73;96682.44;5025925;28;20207;-82
2022/06/18 07:45:38;;;;;;;15.13;3.10;;;;;;;23.49;62.07;96683.44;5006881;28;20202;-82
2022/06/18 07:48:06;;;;;;;13.82;3.17;;;;;;;23.57;60.26;96660.66;5009901;28;20207;-82
2022/06/18 07:50:33;;;;;;;11.27;2.67;;;;;;;23.53;58.93;96665.16;5006839;28;20231;-81
2022/06/18 07:53:00;;;;;;;11.13;3.22;;;;;;;23.75;60.94;96665.28;5010508;28;20208;-82
2022/06/18 07:55:29;;;;;;;14.63;3.10;;;;;;;24.11;59.64;96660.66;5017023;28;20207;-82
2022/06/18 07:57:57;;;;;;;12.30;3.28;;;;;;;24.42;55.68;96659.97;5006913;28;20223;-82
2022/06/18 08:00:24;;;;;;;13.23;3.58;;;;;;;24.78;55.06;96660.78;5005472;28;20209;-83
2022/06/18 08:02:53;;;;;;;11.20;2.90;;;;;;;25.07;55.57;96649.31;5025303;28;20264;-82
2022/06/18 08:05:23;;;;;;;14.70;3.20;;;;;;;25.47;57.00;96657.66;5009695;28;20209;-82
2022/06/18 08:07:50;;;;;;;11.85;3.38;;;;;;;25.61;56.13;96656.44;5006142;28;20242;-83
2022/06/18 08:10:18;;;;;;;13.52;3.75;;;;;;;25.82;54.77;96655.88;5015970;28;20202;-82
2022/06/18 08:12:46;;;;;;;11.80;3.42;;;;;;;25.82;52.55;96647.56;5014221;28;20214;-82
2022/06/18 08:15:14;;;;;;;18.40;3.30;;;;;;;25.80;54.37;96649.84;5024038;28;20197;-82
2022/06/18 08:17:41;;;;;;;14.68;3.67;;;;;;;25.78;54.96;96641.03;5020652;28;20306;-84
2022/06/18 08:20:10;;;;;;;10.57;3.38;;;;;;;25.72;50.31;96645.91;5008388;28;20211;-84
2022/06/18 08:22:39;;;;;;;13.80;3.25;;;;;;;25.88;53.67;96635.22;5005936;28;20208;-83
2022/06/18 08:25:08;;;;;;;16.60;3.42;;;;;;;26.13;54.84;96634.47;4998711;28;20211;-83
2022/06/18 08:27:35;;;;;;;17.60;3.90;;;;;;;26.19;52.53;96633.19;5030644;28;20195;-83
2022/06/18 08:30:03;;;;;;;12.90;3.25;;;;;;;26.39;52.43;96628.97;5000946;28;20208;-83
2022/06/18 08:32:30;;;;;;;8.88;3.03;;;;;;;26.68;51.75;96626.38;4997229;28;20216;-83
2022/06/18 08:34:57;;;;;;;10.35;2.90;;;;;;;26.83;47.77;96616.75;5001892;28;20235;-83
2022/06/18 08:37:26;;;;;;;12.50;3.00;;;;;;;27.05;47.36;96608.25;4995623;28;20219;-83
2022/06/18 08:39:53;;;;;;;10.75;3.45;;;;;;;27.18;46.11;96613.94;5012315;28;20234;-83
2022/06/18 08:42:32;;;;;;;11.43;2.90;;;;;;;27.15;46.07;96609.88;5013647;28;20205;-82
2022/06/18 08:45:19;;;;;;;16.42;3.40;;;;;;;27.25;45.18;96612.28;4997897;28;20234;-83
2022/06/18 08:48:10;;;;;;;12.93;3.35;;;;;;;27.47;40.12;96605.69;5020097;28;20256;-82
2022/06/18 08:50:52;;;;;;;9.80;3.28;;;;;;;27.76;42.59;96605.75;5008338;28;20337;-82
2022/06/18 08:53:35;;;;;;;6.95;2.92;;;;;;;27.96;40.52;96600.56;5003080;28;20217;-83
2022/06/18 08:56:06;;;;;;;9.05;3.50;;;;;;;28.02;39.54;96596.44;5017921;28;20199;-83
2022/06/18 08:58:43;;;;;;;9.43;3.50;;;;;;;28.04;40.20;96588.59;5017853;28;20222;-82
2022/06/18 09:01:21;;;;;;;13.35;3.42;;;;;;;28.26;41.18;96596.63;5012352;28;20261;-83
2022/06/18 09:04:01;;;;;;;12.32;3.97;;;;;;;28.44;41.64;96591.75;5008294;28;20214;-83
2022/06/18 09:06:40;;;;;;;9.32;3.35;;;;;;;28.59;44.29;96591.13;5013376;28;20206;-83
2022/06/18 09:09:20;;;;;;;8.10;3.35;;;;;;;28.61;45.76;96589.66;5016416;28;20202;-83
2022/06/18 09:11:59;;;;;;;7.18;3.55;;;;;;;28.39;47.27;96590.00;5014386;28;20257;-83
2022/06/18 09:14:34;;;;;;;9.30;3.45;;;;;;;28.42;47.49;96589.31;5006443;28;20302;-83
2022/06/18 09:17:09;;;;;;;7.40;3.75;;;;;;;28.47;47.63;96579.97;5010318;28;20218;-83
2022/06/18 09:19:39;;;;;;;12.60;4.20;;;;;;;28.59;47.40;96580.03;5011958;28;20257;-83
2022/06/18 09:22:12;;;;;;;12.63;3.90;;;;;;;28.71;47.30;96579.28;5027673;28;20245;-82
2022/06/18 09:24:44;;;;;;;11.30;3.97;;;;;;;28.79;46.14;96575.63;4993824;28;20212;-83
2022/06/18 09:27:18;;;;;;;12.38;4.38;;;;;;;28.82;45.67;96572.19;5012079;28;20261;-83
2022/06/18 09:29:50;;;;;;;10.77;3.22;;;;;;;28.85;45.59;96565.91;5003249;28;20241;-83
2022/06/18 09:32:25;;;;;;;10.75;3.83;;;;;;;28.86;45.97;96562.78;5015589;28;20198;-83
2022/06/18 09:34:57;;;;;;;8.43;3.75;;;;;;;28.96;45.83;96564.34;5010102;28;20214;-83
2022/06/18 09:37:30;;;;;;;10.43;3.85;;;;;;;29.05;44.19;96562.28;4997342;28;20226;-83
2022/06/18 09:40:01;;;;;;;13.02;3.53;;;;;;;29.12;44.38;96562.50;5027987;28;20210;-83
2022/06/18 09:42:38;;;;;;;10.13;3.63;;;;;;;29.15;44.77;96563.81;4998125;28;20237;-83
2022/06/18 09:45:10;;;;;;;8.75;3.60;;;;;;;29.24;44.38;96550.63;5009078;28;20237;-83
2022/06/18 09:47:40;;;;;;;9.68;3.92;;;;;;;29.31;43.30;96557.22;5006552;28;20206;-83
2022/06/18 09:50:15;;;;;;;11.05;3.45;;;;;;;29.49;43.79;96548.69;5007344;28;20231;-83
2022/06/18 09:52:46;;;;;;;11.48;4.25;;;;;;;29.54;43.76;96551.22;5012082;28;20277;-83
2022/06/18 09:55:19;;;;;;;16.05;4.47;;;;;;;29.60;43.08;96545.09;4995202;28;20206;-83
2022/06/18 09:57:50;;;;;;;11.95;3.65;;;;;;;29.66;42.11;96548.47;5012491;28;20227;-83
2022/06/18 10:00:20;;;;;;;14.68;4.32;;;;;;;29.78;43.35;96544.84;5014672;28;20223;-83
2022/06/18 10:02:55;;;;;;;14.70;3.90;;;;;;;29.79;40.64;96552.84;5006875;28;20321;-82
2022/06/18 10:08:13;;;;;;;14.23;4.03;;;;;;;29.73;39.76;96541.16;4999452;28;20203;-82
2022/06/18 10:10:47;;;;;;;11.68;3.30;;;;;;;29.74;39.95;96533.63;5010629;28;20210;-84
2022/06/18 10:13:18;;;;;;;15.40;4.40;;;;;;;29.82;38.19;96538.25;5011068;28;20210;-82
2022/06/18 10:15:46;;;;;;;10.05;3.78;;;;;;;29.82;37.75;96534.66;4992582;28;20287;-83
2022/06/18 10:18:29;;;;;;;9.88;3.47;;;;;;;29.96;37.80;96535.09;5005978;28;20236;-82
2022/06/18 10:21:03;;;;;;;11.45;3.30;;;;;;;30.05;36.80;96533.81;4998168;28;20207;-82
2022/06/18 10:23:41;;;;;;;10.50;3.85;;;;;;;30.17;37.06;96527.41;4999118;28;20310;-82
2022/06/18 10:26:18;;;;;;;14.90;4.07;;;;;;;30.25;37.48;96534.00;5018391;28;20205;-83
2022/06/18 10:28:54;;;;;;;12.15;4.13;;;;;;;30.23;36.90;96522.41;5010248;28;20356;-82
2022/06/18 10:31:29;;;;;;;11.25;3.50;;;;;;;30.12;36.86;96524.06;5009643;28;20238;-83
2022/06/18 10:34:06;;;;;;;11.65;3.40;;;;;;;30.06;37.30;96518.75;5009279;28;20222;-83
2022/06/18 10:36:40;;;;;;;10.43;3.60;;;;;;;30.07;37.44;96517.59;5010788;28;20230;-82
2022/06/18 10:39:16;;;;;;;7.80;3.30;;;;;;;30.11;37.48;96520.47;5000849;28;20328;-82
2022/06/18 10:42:00;;;;;;;9.55;3.65;;;;;;;29.98;37.63;96518.88;5001616;28;20223;-83
2022/06/18 10:44:41;;;;;;;12.30;3.50;;;;;;;30.10;37.81;96513.28;5010866;28;20211;-83
2022/06/18 10:47:15;;;;;;;13.07;3.78;;;;;;;30.19;37.01;96516.75;5009041;28;20211;-83
2022/06/18 10:49:42;;;;;;;9.45;3.33;;;;;;;30.38;38.08;96502.97;4995934;28;20303;-83
2022/06/18 10:52:18;;;;;;;13.93;3.22;;;;;;;30.39;38.01;96507.38;5003920;28;20206;-83
2022/06/18 10:54:45;;;;;;;17.42;3.58;;;;;;;30.52;37.84;96504.56;4993861;28;20207;-82
2022/06/18 10:57:25;;;;;;;9.10;3.40;;;;;;;30.57;38.34;96502.34;5003506;28;20229;-83
2022/06/18 10:59:52;;;;;;;14.95;3.80;;;;;;;30.73;39.70;96502.38;5005838;28;20210;-83
2022/06/18 11:02:28;;;;;;;12.27;4.03;;;;;;;30.91;38.92;96489.72;5015440;28;20210;-82
2022/06/18 11:04:58;;;;;;;16.95;4.00;;;;;;;30.82;39.08;96489.88;5024518;28;20205;-83
2022/06/18 11:07:27;;;;;;;9.95;4.05;;;;;;;30.96;38.26;96497.03;5012729;28;20210;-82
2022/06/18 11:10:00;;;;;;;8.75;3.42;;;;;;;31.00;38.18;96487.56;4994809;28;20205;-82
2022/06/18 11:12:31;;;;;;;9.85;4.00;;;;;;;31.02;38.02;96487.22;5012990;28;20215;-82
2022/06/18 11:14:59;;;;;;;13.90;3.70;;;;;;;31.11;38.62;96485.09;4994449;28;20199;-82
2022/06/18 11:17:29;;;;;;;9.00;3.40;;;;;;;31.24;37.26;96477.44;5003929;28;20242;-82
2022/06/18 11:20:07;;;;;;;10.90;3.58;;;;;;;31.15;38.00;96477.63;5001866;28;20238;-82
2022/06/18 11:22:36;;;;;;;12.10;3.65;;;;;;;30.99;39.04;96471.19;5005194;28;20211;-82
2022/06/18 11:25:19;;;;;;;9.57;3.80;;;;;;;31.08;37.50;96460.72;5026499;28;20225;-83
2022/06/18 11:27:49;;;;;;;8.88;3.70;;;;;;;31.28;36.43;96467.19;5024161;28;20234;-83
2022/06/18 11:30:25;;;;;;;7.72;3.45;;;;;;;31.28;36.41;96465.22;5009862;28;20210;-82
2022/06/18 11:32:53;;;;;;;12.63;4.10;;;;;;;31.27;36.18;96457.19;4999191;28;20203;-82
2022/06/18 11:35:25;;;;;;;9.93;3.10;;;;;;;31.35;36.47;96451.44;4999164;28;20207;-83
2022/06/18 11:37:58;;;;;;;13.48;3.90;;;;;;;31.32;36.23;96449.34;5026212;28;20211;-82
2022/06/18 11:40:25;;;;;;;11.07;3.50;;;;;;;31.54;35.00;96448.72;5001943;28;20210;-82
2022/06/18 11:42:57;;;;;;;11.38;3.35;;;;;;;31.66;33.07;96444.19;5014229;28;20203;-82
2022/06/18 11:45:41;;;;;;;10.07;3.30;;;;;;;31.79;34.51;96426.16;5007944;28;20233;-82
2022/06/18 11:48:22;;;;;;;14.75;3.88;;;;;;;31.76;36.30;96438.03;5002584;28;20199;-82
2022/06/18 11:50:55;;;;;;;10.07;3.22;;;;;;;31.88;35.72;96424.78;5001532;28;20249;-82
2022/06/18 11:53:27;;;;;;;10.98;3.55;;;;;;;31.85;35.10;96425.50;4994814;28;20202;-82
2022/06/18 11:55:58;;;;;;;7.00;3.75;;;;;;;31.96;35.67;96431.31;5012642;28;20203;-82
2022/06/18 11:58:33;;;;;;;10.77;3.70;;;;;;;31.94;36.07;96411.31;4996442;28;20314;-83
2022/06/18 12:01:14;;;;;;;9.57;3.53;;;;;;;32.19;36.16;96412.66;5026737;28;20281;-82
2022/06/18 12:03:48;;;;;;;9.38;3.55;;;;;;;32.31;35.25;96404.16;5005609;28;20223;-82